createdAt,value
2019-02-17T00:01:27.266Z,99.90
2019-02-17T00:03:56.752Z,99.90
2019-02-17T00:06:26.393Z,99.90
2019-02-17T00:08:56.145Z,99.90
2019-02-17T00:11:25.610Z,99.90
2019-02-17T00:13:55.222Z,99.90
2019-02-17T00:16:24.691Z,99.90
2019-02-17T00:18:54.235Z,99.90
2019-02-17T00:21:23.648Z,99.90
2019-02-17T00:23:53.260Z,99.90
2019-02-17T00:26:22.741Z,99.90
2019-02-17T00:28:59.189Z,99.90
2019-02-17T00:31:23.439Z,99.90
2019-02-17T00:33:52.791Z,99.90
2019-02-17T00:36:22.481Z,99.90
2019-02-17T00:38:52.222Z,99.90
2019-02-17T00:41:21.684Z,99.90
2019-02-17T00:43:51.274Z,99.90
2019-02-17T00:46:20.703Z,99.90
2019-02-17T00:48:50.279Z,99.90
2019-02-17T00:51:19.708Z,99.90
2019-02-17T00:53:51.036Z,99.90
2019-02-17T00:56:20.530Z,99.90
2019-02-17T00:58:50.047Z,99.90
2019-02-17T01:01:19.476Z,99.90
2019-02-17T01:03:48.959Z,99.90
2019-02-17T01:06:18.441Z,99.90
2019-02-17T01:08:47.845Z,99.90
2019-02-17T01:11:17.454Z,99.90
2019-02-17T01:13:46.854Z,99.90
2019-02-17T01:16:16.451Z,99.90
2019-02-17T01:18:45.912Z,99.90
2019-02-17T01:21:15.525Z,99.90
2019-02-17T01:23:44.922Z,99.90
2019-02-17T01:26:14.498Z,99.90
2019-02-17T01:28:44.295Z,99.90
2019-02-17T01:31:13.711Z,99.90
2019-02-17T01:33:43.565Z,99.90
2019-02-17T01:36:12.947Z,99.90
2019-02-17T01:38:42.478Z,99.90
2019-02-17T01:41:12.603Z,99.90
2019-02-17T01:43:42.506Z,99.90
2019-02-17T01:46:12.672Z,99.90
2019-02-17T01:48:42.320Z,99.90
2019-02-17T01:51:12.596Z,99.90
2019-02-17T01:53:42.003Z,99.90
2019-02-17T01:56:12.605Z,99.90
2019-02-17T01:58:44.792Z,99.90
2019-02-17T02:01:13.540Z,99.90
2019-02-17T02:03:42.925Z,99.90
2019-02-17T02:06:12.777Z,99.90
2019-02-17T02:08:42.359Z,99.90
2019-02-17T02:11:12.662Z,99.90
2019-02-17T02:13:42.031Z,99.90
2019-02-17T02:16:12.682Z,99.90
2019-02-17T02:18:42.043Z,99.90
2019-02-17T02:21:12.698Z,99.90
2019-02-17T02:23:42.408Z,99.90
2019-02-17T02:26:12.686Z,99.90
2019-02-17T02:28:42.351Z,99.90
2019-02-17T02:31:12.745Z,99.90
2019-02-17T02:33:42.365Z,99.90
2019-02-17T02:36:12.695Z,99.90
2019-02-17T02:38:42.408Z,99.90
2019-02-17T02:41:12.710Z,99.90
2019-02-17T02:43:42.382Z,99.90
2019-02-17T02:46:12.703Z,99.90
2019-02-17T02:48:42.367Z,99.90
2019-02-17T02:51:12.732Z,99.90
2019-02-17T02:53:42.444Z,99.90
2019-02-17T02:56:12.735Z,99.90
2019-02-17T02:58:42.406Z,99.90
2019-02-17T03:01:13.340Z,99.90
2019-02-17T03:03:42.758Z,99.90
2019-02-17T03:06:17.277Z,99.90
2019-02-17T03:08:46.619Z,99.90
2019-02-17T03:11:16.099Z,99.90
2019-02-17T03:13:45.764Z,99.90
2019-02-17T03:16:15.164Z,99.90
2019-02-17T03:18:44.579Z,99.90
2019-02-17T03:21:14.023Z,99.90
2019-02-17T03:23:43.495Z,99.90
2019-02-17T03:26:12.994Z,99.90
2019-02-17T03:28:42.512Z,99.90
2019-02-17T03:31:13.716Z,99.90
2019-02-17T03:33:43.468Z,99.90
2019-02-17T03:36:12.969Z,99.90
2019-02-17T03:38:42.573Z,99.90
2019-02-17T03:41:12.766Z,99.90
2019-02-17T03:43:42.647Z,99.90
2019-02-17T03:46:12.847Z,99.90
2019-02-17T03:48:42.560Z,99.90
2019-02-17T03:51:12.768Z,99.90
2019-02-17T03:53:42.230Z,99.90
2019-02-17T03:56:12.795Z,99.90
2019-02-17T03:58:42.187Z,99.90
2019-02-17T04:01:12.789Z,99.90
2019-02-17T04:03:42.266Z,99.90
2019-02-17T04:06:12.894Z,99.90
2019-02-17T04:08:42.586Z,99.90
2019-02-17T04:11:12.800Z,99.90
2019-02-17T04:13:42.609Z,99.90
2019-02-17T04:16:12.790Z,99.90
2019-02-17T04:18:42.276Z,99.90
2019-02-17T04:21:12.827Z,99.90
2019-02-17T04:23:42.229Z,99.90
2019-02-17T04:26:12.822Z,99.90
2019-02-17T04:28:42.560Z,99.90
2019-02-17T04:31:12.819Z,99.90
2019-02-17T04:33:42.561Z,99.90
2019-02-17T04:36:12.862Z,99.90
2019-02-17T04:38:42.693Z,99.90
2019-02-17T04:41:12.840Z,99.90
2019-02-17T04:43:42.572Z,99.90
2019-02-17T04:46:12.904Z,99.90
2019-02-17T04:48:42.611Z,99.90
2019-02-17T04:51:12.847Z,99.90
2019-02-17T04:53:42.637Z,99.90
2019-02-17T04:56:12.854Z,99.90
2019-02-17T04:58:42.589Z,99.90
2019-02-17T05:01:12.947Z,99.90
2019-02-17T05:03:42.649Z,99.90
2019-02-17T05:06:12.857Z,99.90
2019-02-17T05:08:42.333Z,99.90
2019-02-17T05:11:12.882Z,99.90
2019-02-17T05:13:42.697Z,99.90
2019-02-17T05:16:12.981Z,99.90
2019-02-17T05:18:42.664Z,99.90
2019-02-17T05:21:12.890Z,99.90
2019-02-17T05:23:42.697Z,99.90
2019-02-17T05:26:12.909Z,99.90
2019-02-17T05:28:42.690Z,99.90
2019-02-17T05:31:12.936Z,99.90
2019-02-17T05:33:42.701Z,99.90
2019-02-17T05:36:12.976Z,99.90
2019-02-17T05:38:42.732Z,99.90
2019-02-17T05:41:12.929Z,99.90
2019-02-17T05:43:42.376Z,99.90
2019-02-17T05:46:12.929Z,99.90
2019-02-17T05:48:42.421Z,99.90
2019-02-17T05:51:12.930Z,99.90
2019-02-17T05:53:42.386Z,99.90
2019-02-17T05:56:12.939Z,99.90
2019-02-17T05:58:42.333Z,99.90
2019-02-17T06:01:12.970Z,99.90
2019-02-17T06:03:42.706Z,99.90
2019-02-17T06:06:14.902Z,99.90
2019-02-17T06:08:44.123Z,99.90
2019-02-17T06:11:13.894Z,99.90
2019-02-17T06:13:43.281Z,99.90
2019-02-17T06:16:13.036Z,99.90
2019-02-17T06:18:42.526Z,99.90
2019-02-17T06:21:13.010Z,99.90
2019-02-17T06:23:42.747Z,99.90
2019-02-17T06:26:13.033Z,99.90
2019-02-17T06:28:43.196Z,99.90
2019-02-17T06:31:14.715Z,99.90
2019-02-17T06:33:51.862Z,99.90
2019-02-17T06:36:21.338Z,99.90
2019-02-17T06:38:51.192Z,99.90
2019-02-17T06:41:20.896Z,99.90
2019-02-17T06:43:54.071Z,99.90
2019-02-17T06:46:25.843Z,99.90
2019-02-17T06:48:55.487Z,99.90
2019-02-17T06:51:25.009Z,99.90
2019-02-17T06:53:54.772Z,99.90
2019-02-17T06:56:37.999Z,99.90
2019-02-17T06:59:07.464Z,99.90
2019-02-17T07:01:36.994Z,99.90
2019-02-17T07:04:06.472Z,99.90
2019-02-17T07:06:37.594Z,99.90
2019-02-17T07:09:07.068Z,99.90
2019-02-17T07:11:36.908Z,99.90
2019-02-17T07:14:09.523Z,99.90
2019-02-17T07:16:42.407Z,99.90
2019-02-17T07:19:13.401Z,99.90
2019-02-17T07:21:44.446Z,99.90
2019-02-17T07:24:14.235Z,99.90
2019-02-17T07:26:44.216Z,99.90
2019-02-17T07:29:16.913Z,99.90
2019-02-17T07:31:49.249Z,99.90
2019-02-17T07:34:20.751Z,99.90
2019-02-17T07:36:50.206Z,99.90
2019-02-17T07:39:20.349Z,99.90
2019-02-17T07:41:50.040Z,99.90
2019-02-17T07:44:20.004Z,99.90
2019-02-17T07:46:49.489Z,99.90
2019-02-17T07:49:19.012Z,99.90
2019-02-17T07:51:48.465Z,99.90
2019-02-17T07:54:19.842Z,99.90
2019-02-17T07:56:49.351Z,99.90
2019-02-17T07:59:19.180Z,99.20
2019-02-17T08:01:48.997Z,97.90
2019-02-17T08:04:18.493Z,92.60
2019-02-17T08:06:50.858Z,91.00
2019-02-17T08:09:24.715Z,89.70
2019-02-17T08:11:58.975Z,88.40
2019-02-17T08:14:28.505Z,84.00
2019-02-17T08:17:01.167Z,80.70
2019-02-17T08:19:37.973Z,79.90
2019-02-17T08:22:07.584Z,76.30
2019-02-17T08:24:37.121Z,76.80
2019-02-17T08:27:06.653Z,88.10
2019-02-17T08:29:36.066Z,74.50
2019-02-17T08:32:05.585Z,72.60
2019-02-17T08:34:35.006Z,65.30
2019-02-17T08:37:04.580Z,66.10
2019-02-17T08:39:34.027Z,61.00
2019-02-17T08:42:03.663Z,63.30
2019-02-17T08:44:35.187Z,61.50
2019-02-17T08:47:06.479Z,59.10
2019-02-17T08:49:36.023Z,57.80
2019-02-17T08:52:08.371Z,57.80
2019-02-17T08:54:40.966Z,56.80
2019-02-17T08:57:10.776Z,56.50
2019-02-17T08:59:40.379Z,55.40
2019-02-17T09:02:10.083Z,57.20
2019-02-17T09:04:43.817Z,57.00
2019-02-17T09:07:13.477Z,55.60
2019-02-17T09:09:43.058Z,53.90
2019-02-17T09:12:17.624Z,54.00
2019-02-17T09:14:54.461Z,51.80
2019-02-17T09:17:27.016Z,51.20
2019-02-17T09:19:56.772Z,50.50
2019-02-17T09:22:29.412Z,51.10
2019-02-17T09:24:59.188Z,49.20
2019-02-17T09:27:33.969Z,49.60
2019-02-17T09:30:03.524Z,48.10
2019-02-17T09:32:33.350Z,48.80
2019-02-17T09:35:02.951Z,47.50
2019-02-17T09:37:32.331Z,47.00
2019-02-17T09:40:02.293Z,47.10
2019-02-17T09:42:32.220Z,46.90
2019-02-17T09:45:01.684Z,46.20
2019-02-17T09:47:31.330Z,46.50
2019-02-17T09:50:01.161Z,47.50
2019-02-17T09:52:30.666Z,47.50
2019-02-17T09:55:00.348Z,47.30
2019-02-17T09:57:30.144Z,46.50
2019-02-17T09:59:59.626Z,46.00
2019-02-17T10:02:29.165Z,47.30
2019-02-17T10:04:58.624Z,47.30
2019-02-17T10:07:28.317Z,48.10
2019-02-17T10:09:58.046Z,47.00
2019-02-17T10:12:27.570Z,47.10
2019-02-17T10:14:57.177Z,47.20
2019-02-17T10:17:27.326Z,47.30
2019-02-17T10:19:57.036Z,47.50
2019-02-17T10:22:26.528Z,47.10
2019-02-17T10:24:56.069Z,45.70
2019-02-17T10:27:25.598Z,45.80
2019-02-17T10:29:55.258Z,45.90
2019-02-17T10:32:24.713Z,43.20
2019-02-17T10:34:54.235Z,44.80
2019-02-17T10:37:23.830Z,42.40
2019-02-17T10:39:53.344Z,43.00
2019-02-17T10:42:23.308Z,42.80
2019-02-17T10:44:53.467Z,44.80
2019-02-17T10:47:28.020Z,45.10
2019-02-17T10:49:57.570Z,42.70
2019-02-17T10:52:27.309Z,41.50
2019-02-17T10:54:56.864Z,42.20
2019-02-17T10:57:26.341Z,40.40
2019-02-17T10:59:56.058Z,38.90
2019-02-17T11:02:25.573Z,39.10
2019-02-17T11:05:01.348Z,39.60
2019-02-17T11:07:31.379Z,39.20
2019-02-17T11:10:00.787Z,39.10
2019-02-17T11:12:30.314Z,37.80
2019-02-17T11:15:00.337Z,37.60
2019-02-17T11:17:32.400Z,38.50
2019-02-17T11:20:02.158Z,40.30
2019-02-17T11:22:31.664Z,40.20
2019-02-17T11:25:04.474Z,38.40
2019-02-17T11:27:34.368Z,37.40
2019-02-17T11:30:06.412Z,44.80
2019-02-17T11:32:36.150Z,46.50
2019-02-17T11:35:05.962Z,46.30
2019-02-17T11:37:35.790Z,43.40
2019-02-17T11:40:09.108Z,43.00
2019-02-17T11:42:41.021Z,44.00
2019-02-17T11:45:16.226Z,43.30
2019-02-17T11:47:45.956Z,41.10
2019-02-17T11:50:15.935Z,42.40
2019-02-17T11:52:45.588Z,42.30
2019-02-17T11:55:16.098Z,40.10
2019-02-17T11:57:48.256Z,38.20
2019-02-17T12:00:22.271Z,39.70
2019-02-17T12:02:51.846Z,37.50
2019-02-17T12:05:21.346Z,36.70
2019-02-17T12:07:51.202Z,33.10
2019-02-17T12:10:21.012Z,36.80
2019-02-17T12:12:50.858Z,37.90
2019-02-17T12:15:21.663Z,37.20
2019-02-17T12:17:51.258Z,35.70
2019-02-17T12:20:31.654Z,37.80
2019-02-17T12:23:12.151Z,35.90
2019-02-17T12:25:43.837Z,39.60
2019-02-17T12:28:21.307Z,33.50
2019-02-17T12:30:54.069Z,36.30
2019-02-17T12:33:22.928Z,34.50
2019-02-17T12:35:54.835Z,33.00
2019-02-17T12:38:24.464Z,35.50
2019-02-17T12:40:54.360Z,35.90
2019-02-17T12:43:24.035Z,34.20
2019-02-17T12:45:54.745Z,35.30
2019-02-17T12:48:24.580Z,35.10
2019-02-17T12:50:54.356Z,36.80
2019-02-17T12:53:24.011Z,37.10
2019-02-17T12:55:55.139Z,36.70
2019-02-17T12:58:30.074Z,36.90
2019-02-17T13:00:56.223Z,36.50
2019-02-17T13:03:28.609Z,36.70
2019-02-17T13:05:58.544Z,35.80
2019-02-17T13:08:28.356Z,33.80
2019-02-17T13:10:58.222Z,33.80
2019-02-17T13:13:27.772Z,35.20
2019-02-17T13:15:57.716Z,35.20
2019-02-17T13:18:28.871Z,37.10
2019-02-17T13:20:58.884Z,35.90
2019-02-17T13:23:28.478Z,36.90
2019-02-17T13:25:57.912Z,34.80
2019-02-17T13:28:27.595Z,37.30
2019-02-17T13:30:57.332Z,34.60
2019-02-17T13:33:26.869Z,35.10
2019-02-17T13:35:58.495Z,35.70
2019-02-17T13:38:28.664Z,37.30
2019-02-17T13:40:58.345Z,36.40
2019-02-17T13:43:27.894Z,35.90
2019-02-17T13:45:57.416Z,33.80
2019-02-17T13:48:29.738Z,33.90
2019-02-17T13:50:59.667Z,32.70
2019-02-17T13:53:29.569Z,33.20
2019-02-17T13:55:59.568Z,30.20
2019-02-17T13:58:29.439Z,31.00
2019-02-17T14:01:01.400Z,28.70
2019-02-17T14:03:31.112Z,26.70
2019-02-17T14:06:01.476Z,26.40
2019-02-17T14:08:31.376Z,25.20
2019-02-17T14:11:01.634Z,24.00
2019-02-17T14:13:31.281Z,24.00
2019-02-17T14:16:01.108Z,25.00
2019-02-17T14:18:30.603Z,24.50
2019-02-17T14:21:00.269Z,25.00
2019-02-17T14:23:30.179Z,25.40
2019-02-17T14:25:59.893Z,23.70
2019-02-17T14:28:30.880Z,24.10
2019-02-17T14:31:00.600Z,24.40
2019-02-17T14:33:30.013Z,24.70
2019-02-17T14:35:59.964Z,24.30
2019-02-17T14:38:29.718Z,25.00
2019-02-17T14:40:59.679Z,23.90
2019-02-17T14:43:29.457Z,24.90
2019-02-17T14:45:59.459Z,24.70
2019-02-17T14:48:29.271Z,24.30
2019-02-17T14:50:58.764Z,25.30
2019-02-17T14:53:28.561Z,24.80
2019-02-17T14:55:58.097Z,25.60
2019-02-17T14:58:27.771Z,24.50
2019-02-17T15:00:57.765Z,23.50
2019-02-17T15:03:27.818Z,23.60
2019-02-17T15:05:57.662Z,24.20
2019-02-17T15:08:27.636Z,23.90
2019-02-17T15:10:57.111Z,23.10
2019-02-17T15:13:27.006Z,24.10
2019-02-17T15:15:56.932Z,22.90
2019-02-17T15:18:26.748Z,22.80
2019-02-17T15:20:56.457Z,22.10
2019-02-17T15:23:25.950Z,21.30
2019-02-17T15:25:55.814Z,21.40
2019-02-17T15:28:25.588Z,22.00
2019-02-17T15:30:55.701Z,21.00
2019-02-17T15:33:27.736Z,20.20
2019-02-17T15:35:57.621Z,20.30
2019-02-17T15:38:27.751Z,19.60
2019-02-17T15:40:57.905Z,19.30
2019-02-17T15:43:27.681Z,19.60
2019-02-17T15:45:57.566Z,19.50
2019-02-17T15:48:27.328Z,19.80
2019-02-17T15:51:06.050Z,20.60
2019-02-17T15:53:28.525Z,20.80
2019-02-17T15:55:58.280Z,20.90
2019-02-17T15:58:27.990Z,21.30
2019-02-17T16:00:57.800Z,21.40
2019-02-17T16:03:27.747Z,21.70
2019-02-17T16:05:57.184Z,22.70
2019-02-17T16:08:27.000Z,24.50
2019-02-17T16:10:56.707Z,26.00
2019-02-17T16:13:26.173Z,28.00
2019-02-17T16:15:55.823Z,30.00
2019-02-17T16:18:25.797Z,32.20
2019-02-17T16:20:55.564Z,32.50
2019-02-17T16:23:25.276Z,33.40
2019-02-17T16:25:54.692Z,35.00
2019-02-17T16:28:24.153Z,35.80
2019-02-17T16:30:53.825Z,36.30
2019-02-17T16:33:23.635Z,37.90
2019-02-17T16:35:53.132Z,37.70
2019-02-17T16:38:22.799Z,37.80
2019-02-17T16:40:52.583Z,38.10
2019-02-17T16:43:22.339Z,39.10
2019-02-17T16:45:51.858Z,39.90
2019-02-17T16:48:21.643Z,40.10
2019-02-17T16:50:51.220Z,40.70
2019-02-17T16:53:20.799Z,41.10
2019-02-17T16:55:50.228Z,41.30
2019-02-17T16:58:19.815Z,41.40
2019-02-17T17:00:49.557Z,41.50
2019-02-17T17:03:19.073Z,42.10
2019-02-17T17:05:48.697Z,42.80
2019-02-17T17:08:18.128Z,43.10
2019-02-17T17:10:47.636Z,43.60
2019-02-17T17:13:17.163Z,43.70
2019-02-17T17:15:47.047Z,44.20
2019-02-17T17:18:16.871Z,44.30
2019-02-17T17:20:46.868Z,44.30
2019-02-17T17:23:17.036Z,44.40
2019-02-17T17:25:47.181Z,44.80
2019-02-17T17:28:16.953Z,45.60
2019-02-17T17:30:46.809Z,45.80
2019-02-17T17:33:16.235Z,46.20
2019-02-17T17:35:45.672Z,46.30
2019-02-17T17:38:17.386Z,46.80
2019-02-17T17:40:46.872Z,47.80
2019-02-17T17:43:16.362Z,48.10
2019-02-17T17:45:45.802Z,47.60
2019-02-17T17:48:15.235Z,47.80
2019-02-17T17:50:44.738Z,48.00
2019-02-17T17:53:14.342Z,48.50
2019-02-17T17:55:43.998Z,48.90
2019-02-17T17:58:14.056Z,49.10
2019-02-17T18:00:43.780Z,49.40
2019-02-17T18:03:14.102Z,49.60
2019-02-17T18:05:43.727Z,50.20
2019-02-17T18:08:15.639Z,50.90
2019-02-17T18:10:45.191Z,51.50
2019-02-17T18:13:15.104Z,53.50
2019-02-17T18:15:45.056Z,52.40
2019-02-17T18:18:14.824Z,52.00
2019-02-17T18:20:44.245Z,52.20
2019-02-17T18:23:14.131Z,52.50
2019-02-17T18:25:43.747Z,53.20
2019-02-17T18:28:14.414Z,53.90
2019-02-17T18:30:44.007Z,53.40
2019-02-17T18:33:13.997Z,53.80
2019-02-17T18:35:43.767Z,53.70
2019-02-17T18:38:14.260Z,54.00
2019-02-17T18:40:47.194Z,54.30
2019-02-17T18:43:15.017Z,55.10
2019-02-17T18:45:44.533Z,54.90
2019-02-17T18:48:14.091Z,55.30
2019-02-17T18:50:43.851Z,55.10
2019-02-17T18:53:15.434Z,55.00
2019-02-17T18:55:45.014Z,54.90
2019-02-17T18:58:14.444Z,54.50
2019-02-17T19:00:46.636Z,54.40
2019-02-17T19:03:16.072Z,54.00
2019-02-17T19:05:45.817Z,53.80
2019-02-17T19:08:15.265Z,54.30
2019-02-17T19:10:44.827Z,53.80
2019-02-17T19:13:14.240Z,53.70
2019-02-17T19:15:43.849Z,53.70
2019-02-17T19:18:14.058Z,53.60
2019-02-17T19:20:43.816Z,53.40
2019-02-17T19:23:14.053Z,53.30
2019-02-17T19:25:43.533Z,52.60
2019-02-17T19:28:14.133Z,52.30
2019-02-17T19:30:43.856Z,52.50
2019-02-17T19:33:14.078Z,52.30
2019-02-17T19:35:43.852Z,52.50
2019-02-17T19:38:14.094Z,51.90
2019-02-17T19:40:43.971Z,52.10
2019-02-17T19:43:14.315Z,52.10
2019-02-17T19:45:43.908Z,52.30
2019-02-17T19:48:14.113Z,52.80
2019-02-17T19:50:43.930Z,52.30
2019-02-17T19:53:14.205Z,53.00
2019-02-17T19:55:43.896Z,52.70
2019-02-17T19:58:14.101Z,52.40
2019-02-17T20:00:43.537Z,52.30
2019-02-17T20:03:15.770Z,52.80
2019-02-17T20:05:52.295Z,52.30
2019-02-17T20:08:21.165Z,52.20
2019-02-17T20:10:50.608Z,51.80
2019-02-17T20:13:20.025Z,53.00
2019-02-17T20:15:52.057Z,52.50
2019-02-17T20:18:21.775Z,52.70
2019-02-17T20:20:51.412Z,52.00
2019-02-17T20:23:21.152Z,52.30
2019-02-17T20:25:51.034Z,52.10
2019-02-17T20:28:31.174Z,52.60
2019-02-17T20:30:52.816Z,52.50
2019-02-17T20:33:22.353Z,52.80
2019-02-17T20:36:01.789Z,53.30
2019-02-17T20:38:23.572Z,53.10
2019-02-17T20:40:53.058Z,53.20
2019-02-17T20:43:22.584Z,53.00
2019-02-17T20:45:52.064Z,53.30
2019-02-17T20:48:21.994Z,54.50
2019-02-17T20:50:51.548Z,53.90
2019-02-17T20:53:21.120Z,53.90
2019-02-17T20:55:50.586Z,54.20
2019-02-17T20:58:20.552Z,54.60
2019-02-17T21:00:50.007Z,54.90
2019-02-17T21:03:19.419Z,55.70
2019-02-17T21:05:49.050Z,56.10
2019-02-17T21:08:18.496Z,56.80
2019-02-17T21:10:48.058Z,57.10
2019-02-17T21:13:18.030Z,58.20
2019-02-17T21:15:47.755Z,58.80
2019-02-17T21:18:17.275Z,60.00
2019-02-17T21:20:46.979Z,59.90
2019-02-17T21:23:17.047Z,59.50
2019-02-17T21:25:46.821Z,60.60
2019-02-17T21:28:16.365Z,59.60
2019-02-17T21:30:46.029Z,59.60
2019-02-17T21:33:15.538Z,59.60
2019-02-17T21:35:44.987Z,72.00
2019-02-17T21:38:14.464Z,73.30
2019-02-17T21:40:44.008Z,69.90
2019-02-17T21:43:14.284Z,67.20
2019-02-17T21:45:43.988Z,66.90
2019-02-17T21:48:14.275Z,66.00
2019-02-17T21:50:44.027Z,67.00
2019-02-17T21:53:20.409Z,68.40
2019-02-17T21:55:45.703Z,68.90
2019-02-17T21:58:15.248Z,68.20
2019-02-17T22:00:44.682Z,69.00
2019-02-17T22:03:14.417Z,72.50
2019-02-17T22:05:44.249Z,74.50
2019-02-17T22:08:14.463Z,72.70
2019-02-17T22:10:44.097Z,75.20
2019-02-17T22:13:14.412Z,78.90
2019-02-17T22:15:44.069Z,79.40
2019-02-17T22:18:14.355Z,80.00
2019-02-17T22:20:44.102Z,82.00
2019-02-17T22:23:15.380Z,79.30
2019-02-17T22:25:45.061Z,99.90
2019-02-17T22:28:14.631Z,95.70
2019-02-17T22:30:44.133Z,90.60
2019-02-17T22:33:14.369Z,90.60
2019-02-17T22:35:44.133Z,91.40
2019-02-17T22:38:14.352Z,90.70
2019-02-17T22:40:44.081Z,91.60
2019-02-17T22:43:14.365Z,91.80
2019-02-17T22:45:44.085Z,92.00
2019-02-17T22:48:14.357Z,93.10
2019-02-17T22:50:44.034Z,95.50
2019-02-17T22:53:14.290Z,97.40
2019-02-17T22:55:43.724Z,99.30
2019-02-17T22:58:14.378Z,99.90
2019-02-17T23:00:45.721Z,99.90
2019-02-17T23:03:15.788Z,99.70
2019-02-17T23:05:45.216Z,99.90
2019-02-17T23:08:14.679Z,99.90
2019-02-17T23:10:44.170Z,99.90
2019-02-17T23:13:14.454Z,99.90
2019-02-17T23:15:44.162Z,99.90
2019-02-17T23:18:14.384Z,99.90
2019-02-17T23:20:44.148Z,99.90
2019-02-17T23:23:14.398Z,99.90
2019-02-17T23:25:44.080Z,99.90
2019-02-17T23:28:14.490Z,99.90
2019-02-17T23:30:44.233Z,99.90
2019-02-17T23:33:17.946Z,99.90
2019-02-17T23:35:48.779Z,99.90
2019-02-17T23:38:18.444Z,99.90
2019-02-17T23:40:48.180Z,99.90
2019-02-17T23:43:18.512Z,99.90
2019-02-17T23:45:48.141Z,99.90
2019-02-17T23:48:17.550Z,99.90
2019-02-17T23:50:47.171Z,99.90
2019-02-17T23:53:16.620Z,99.90
2019-02-17T23:55:46.173Z,99.90
2019-02-17T23:58:15.713Z,99.90
